createdAt,value
2023-05-08T00:00:04.902Z,43.07
2023-05-08T00:03:07.153Z,42.82
2023-05-08T00:06:09.123Z,43.41
2023-05-08T00:09:11.339Z,43.08
2023-05-08T00:12:13.953Z,43.23
2023-05-08T00:15:15.776Z,43.28
2023-05-08T00:18:17.704Z,42.85
2023-05-08T00:21:19.575Z,43.35
2023-05-08T00:24:21.850Z,43.10
2023-05-08T00:27:23.676Z,43.05
2023-05-08T00:30:25.573Z,43.30
2023-05-08T00:33:27.515Z,43.25
2023-05-08T00:36:29.381Z,43.36
2023-05-08T00:39:31.376Z,42.97
2023-05-08T00:42:33.263Z,43.10
2023-05-08T00:45:37.958Z,43.34
2023-05-08T00:48:40.692Z,43.29
2023-05-08T00:51:48.098Z,43.29
2023-05-08T00:54:50.245Z,43.35
2023-05-08T00:57:52.749Z,43.17
2023-05-08T01:00:57.251Z,43.33
2023-05-08T01:03:59.241Z,43.38
2023-05-08T01:07:02.615Z,43.36
2023-05-08T01:10:05.921Z,43.41
2023-05-08T01:13:26.564Z,43.47
2023-05-08T01:16:48.347Z,43.65
2023-05-08T01:20:39.560Z,43.50
2023-05-08T01:24:09.120Z,43.57
2023-05-08T01:27:41.612Z,43.69
2023-05-08T01:31:09.742Z,43.83
2023-05-08T01:34:33.499Z,43.94
2023-05-08T01:37:47.559Z,43.89
2023-05-08T01:40:57.147Z,43.78
2023-05-08T01:44:18.218Z,43.82
2023-05-08T01:47:24.311Z,43.69
2023-05-08T01:50:33.268Z,43.41
2023-05-08T01:53:41.251Z,43.66
2023-05-08T01:56:45.464Z,43.77
2023-05-08T01:59:49.522Z,43.63
2023-05-08T02:02:54.009Z,43.47
2023-05-08T02:05:57.971Z,43.76
2023-05-08T02:09:00.964Z,43.55
2023-05-08T02:12:08.491Z,43.75
2023-05-08T02:15:13.457Z,43.83
2023-05-08T02:18:18.932Z,43.75
2023-05-08T02:21:22.335Z,43.74
2023-05-08T02:24:25.806Z,43.35
2023-05-08T02:27:29.328Z,43.59
2023-05-08T02:30:31.557Z,43.41
2023-05-08T02:33:33.670Z,43.17
2023-05-08T02:36:37.287Z,43.22
2023-05-08T02:39:41.348Z,43.30
2023-05-08T02:42:44.065Z,43.33
2023-05-08T02:45:59.926Z,43.19
2023-05-08T02:49:05.902Z,43.40
2023-05-08T02:52:14.480Z,43.27
2023-05-08T02:55:42.025Z,43.48
2023-05-08T02:58:55.743Z,43.70
2023-05-08T03:02:17.973Z,43.40
2023-05-08T03:05:30.595Z,42.66
2023-05-08T03:08:35.467Z,42.75
2023-05-08T03:11:42.526Z,43.25
2023-05-08T03:15:01.281Z,43.75
2023-05-08T03:18:08.176Z,43.74
2023-05-08T03:21:13.259Z,43.50
2023-05-08T03:24:17.616Z,43.90
2023-05-08T03:27:20.587Z,43.49
2023-05-08T03:30:25.480Z,43.62
2023-05-08T03:33:38.907Z,43.42
2023-05-08T03:36:41.271Z,43.68
2023-05-08T03:39:43.337Z,43.66
2023-05-08T03:42:46.018Z,43.17
2023-05-08T03:45:47.998Z,43.47
2023-05-08T03:48:51.822Z,43.72
2023-05-08T03:51:57.048Z,43.36
2023-05-08T03:54:59.448Z,43.46
2023-05-08T03:58:13.343Z,43.66
2023-05-08T04:01:44.517Z,43.17
2023-05-08T04:04:53.022Z,43.37
2023-05-08T04:08:15.693Z,42.90
2023-05-08T04:11:35.867Z,43.46
2023-05-08T04:15:06.247Z,42.73
2023-05-08T04:18:12.463Z,42.58
2023-05-08T04:21:19.737Z,42.40
2023-05-08T04:24:23.559Z,42.29
2023-05-08T04:27:26.125Z,42.53
2023-05-08T04:30:29.081Z,42.26
2023-05-08T04:33:31.245Z,41.53
2023-05-08T04:36:34.024Z,41.18
2023-05-08T04:39:37.497Z,40.66
2023-05-08T04:42:42.965Z,40.61
2023-05-08T04:45:45.160Z,40.38
2023-05-08T04:48:47.217Z,40.05
2023-05-08T04:51:49.111Z,39.52
2023-05-08T04:54:51.013Z,39.17
2023-05-08T04:57:52.968Z,39.30
2023-05-08T05:00:55.081Z,38.73
2023-05-08T05:03:57.454Z,38.89
2023-05-08T05:06:59.906Z,39.26
2023-05-08T05:10:01.956Z,39.39
2023-05-08T05:13:05.872Z,39.30
2023-05-08T05:16:08.561Z,39.37
2023-05-08T05:19:10.458Z,39.65
2023-05-08T05:22:13.367Z,39.45
2023-05-08T05:25:15.590Z,39.36
2023-05-08T05:28:17.774Z,39.35
2023-05-08T05:31:19.789Z,39.32
2023-05-08T05:34:22.512Z,38.91
2023-05-08T05:37:24.760Z,38.27
2023-05-08T05:40:28.391Z,38.57
2023-05-08T05:43:30.460Z,39.25
2023-05-08T05:46:32.808Z,38.70
2023-05-08T05:49:37.653Z,38.26
2023-05-08T05:52:39.539Z,38.14
2023-05-08T05:55:41.465Z,37.34
2023-05-08T05:58:45.316Z,37.26
2023-05-08T06:01:47.785Z,37.48
2023-05-08T06:04:51.957Z,36.76
2023-05-08T06:07:53.840Z,36.69
2023-05-08T06:10:55.692Z,37.58
2023-05-08T06:13:57.654Z,35.94
2023-05-08T06:17:00.248Z,36.36
2023-05-08T06:20:02.670Z,36.24
2023-05-08T06:23:05.098Z,35.79
2023-05-08T06:26:06.964Z,35.38
2023-05-08T06:29:08.918Z,35.19
2023-05-08T06:32:10.832Z,35.19
2023-05-08T06:35:13.368Z,34.68
2023-05-08T06:38:16.089Z,33.47
2023-05-08T06:41:18.071Z,33.95
2023-05-08T06:44:19.997Z,33.55
2023-05-08T06:47:21.859Z,33.44
2023-05-08T06:50:23.867Z,33.69
2023-05-08T06:53:25.868Z,34.25
2023-05-08T06:56:28.008Z,33.98
2023-05-08T06:59:29.789Z,32.91
2023-05-08T07:02:31.701Z,33.09
2023-05-08T07:05:33.656Z,32.65
2023-05-08T07:08:35.722Z,32.44
2023-05-08T07:11:37.632Z,32.36
2023-05-08T07:14:39.464Z,32.46
2023-05-08T07:17:42.036Z,31.69
2023-05-08T07:20:43.895Z,31.19
2023-05-08T07:23:45.983Z,31.35
2023-05-08T07:26:47.833Z,30.43
2023-05-08T07:29:49.682Z,30.58
2023-05-08T07:32:51.526Z,30.52
2023-05-08T07:35:53.763Z,29.77
2023-05-08T07:38:55.561Z,30.47
2023-05-08T07:41:57.510Z,31.14
2023-05-08T07:45:00.653Z,30.30
2023-05-08T07:48:02.603Z,29.79
2023-05-08T07:51:04.789Z,30.68
2023-05-08T07:54:06.829Z,30.83
2023-05-08T07:57:08.751Z,30.77
2023-05-08T08:00:15.492Z,31.63
2023-05-08T08:03:18.395Z,31.17
2023-05-08T08:06:20.396Z,31.44
2023-05-08T08:09:22.418Z,30.90
2023-05-08T08:12:24.362Z,30.01
2023-05-08T08:15:26.272Z,30.52
2023-05-08T08:18:28.724Z,29.21
2023-05-08T08:21:31.259Z,29.71
2023-05-08T08:24:33.292Z,29.35
2023-05-08T08:27:35.640Z,29.67
2023-05-08T08:30:37.528Z,29.35
2023-05-08T08:33:39.301Z,28.23
2023-05-08T08:36:41.202Z,28.78
2023-05-08T08:39:43.145Z,27.92
2023-05-08T08:42:45.011Z,29.16
2023-05-08T08:45:46.886Z,28.24
2023-05-08T08:48:50.137Z,28.24
2023-05-08T08:51:55.910Z,28.00
2023-05-08T08:55:00.651Z,27.91
2023-05-08T08:58:15.870Z,28.35
2023-05-08T09:01:20.647Z,27.43
2023-05-08T09:04:23.887Z,27.62
2023-05-08T09:07:26.941Z,28.39
2023-05-08T09:10:28.885Z,27.79
2023-05-08T09:13:31.016Z,28.08
2023-05-08T09:16:33.184Z,28.34
2023-05-08T09:19:36.488Z,27.77
2023-05-08T09:22:38.961Z,27.90
2023-05-08T09:25:53.596Z,27.68
2023-05-08T09:29:16.126Z,27.69
2023-05-08T09:32:18.975Z,27.30
2023-05-08T09:35:21.340Z,27.20
2023-05-08T09:38:37.327Z,27.49
2023-05-08T09:41:39.477Z,27.43
2023-05-08T09:44:49.990Z,27.19
2023-05-08T09:47:51.869Z,27.38
2023-05-08T09:51:05.984Z,27.26
2023-05-08T09:54:18.253Z,27.56
2023-05-08T09:57:20.154Z,27.06
2023-05-08T10:00:22.799Z,27.42
2023-05-08T10:03:26.667Z,27.81
2023-05-08T10:06:29.114Z,27.93
2023-05-08T10:09:42.609Z,27.83
2023-05-08T10:12:49.433Z,27.35
2023-05-08T10:15:55.102Z,27.34
2023-05-08T10:19:05.993Z,26.68
2023-05-08T10:22:11.516Z,26.94
2023-05-08T10:25:17.733Z,26.86
2023-05-08T10:28:37.108Z,27.04
2023-05-08T10:31:42.177Z,26.83
2023-05-08T10:34:46.817Z,26.52
2023-05-08T10:37:50.025Z,26.53
2023-05-08T10:40:57.894Z,26.17
2023-05-08T10:44:03.185Z,26.19
2023-05-08T10:47:11.474Z,26.27
2023-05-08T10:50:28.922Z,26.91
2023-05-08T10:53:51.249Z,25.69
2023-05-08T10:57:08.280Z,26.44
2023-05-08T11:00:10.667Z,26.25
2023-05-08T11:03:23.602Z,26.61
2023-05-08T11:06:46.929Z,26.74
2023-05-08T11:09:49.197Z,27.21
2023-05-08T11:12:51.765Z,26.70
2023-05-08T11:15:53.704Z,27.01
2023-05-08T11:19:18.498Z,26.28
2023-05-08T11:22:25.948Z,26.49
2023-05-08T11:25:46.104Z,27.78
2023-05-08T11:28:53.810Z,27.03
2023-05-08T11:31:56.183Z,26.72
2023-05-08T11:34:58.109Z,27.01
2023-05-08T11:38:20.212Z,27.80
2023-05-08T11:41:23.603Z,27.26
2023-05-08T11:44:28.010Z,27.31
2023-05-08T11:47:37.757Z,27.18
2023-05-08T11:50:39.750Z,27.50
2023-05-08T11:53:43.802Z,27.42
2023-05-08T11:56:47.996Z,27.38
2023-05-08T11:59:54.701Z,27.19
2023-05-08T12:02:56.605Z,26.82
2023-05-08T12:06:00.034Z,27.64
2023-05-08T12:09:04.919Z,27.43
2023-05-08T12:12:07.352Z,27.68
2023-05-08T12:15:18.582Z,27.07
2023-05-08T12:18:21.847Z,27.21
2023-05-08T12:21:23.706Z,26.83
2023-05-08T12:24:26.883Z,27.02
2023-05-08T12:27:29.439Z,26.56
2023-05-08T12:30:31.314Z,26.67
2023-05-08T12:33:34.385Z,26.17
2023-05-08T12:36:37.778Z,26.73
2023-05-08T12:39:44.825Z,26.71
2023-05-08T12:42:50.102Z,26.58
2023-05-08T12:45:52.757Z,26.41
2023-05-08T12:49:01.412Z,25.52
2023-05-08T12:52:05.234Z,25.26
2023-05-08T12:55:23.617Z,25.83
2023-05-08T12:58:27.520Z,25.73
2023-05-08T13:01:35.766Z,25.59
2023-05-08T13:04:38.647Z,25.24
2023-05-08T13:07:40.997Z,25.30
2023-05-08T13:10:55.078Z,25.05
2023-05-08T13:13:56.959Z,25.55
2023-05-08T13:16:59.847Z,24.96
2023-05-08T13:20:05.972Z,25.20
2023-05-08T13:23:08.788Z,25.25
2023-05-08T13:26:10.636Z,25.35
2023-05-08T13:29:12.538Z,25.54
2023-05-08T13:32:14.733Z,25.65
2023-05-08T13:35:17.947Z,25.39
2023-05-08T13:38:19.966Z,25.37
2023-05-08T13:41:22.221Z,25.60
2023-05-08T13:44:24.181Z,25.72
2023-05-08T13:47:26.926Z,26.05
2023-05-08T13:50:29.284Z,25.93
2023-05-08T13:53:31.122Z,26.00
2023-05-08T13:56:33.055Z,26.48
2023-05-08T13:59:35.665Z,26.54
2023-05-08T14:02:38.035Z,26.41
2023-05-08T14:05:40.092Z,26.09
2023-05-08T14:08:46.449Z,26.58
2023-05-08T14:11:50.653Z,27.11
2023-05-08T14:14:52.610Z,27.34
2023-05-08T14:17:54.470Z,27.58
2023-05-08T14:20:57.619Z,26.96
2023-05-08T14:23:59.612Z,26.94
2023-05-08T14:27:05.829Z,27.35
2023-05-08T14:30:08.393Z,27.74
2023-05-08T14:33:10.259Z,27.79
2023-05-08T14:36:12.139Z,28.25
2023-05-08T14:39:14.059Z,28.28
2023-05-08T14:42:22.196Z,28.46
2023-05-08T14:45:25.053Z,29.03
2023-05-08T14:48:27.663Z,29.22
2023-05-08T14:51:29.507Z,29.33
2023-05-08T14:54:31.938Z,29.22
2023-05-08T14:57:33.936Z,29.52
2023-05-08T15:00:35.971Z,29.63
2023-05-08T15:03:38.034Z,29.90
2023-05-08T15:06:40.496Z,30.04
2023-05-08T15:09:42.342Z,30.04
2023-05-08T15:12:44.380Z,30.23
2023-05-08T15:15:46.493Z,30.15
2023-05-08T15:18:48.453Z,30.28
2023-05-08T15:21:50.287Z,30.30
2023-05-08T15:24:52.190Z,30.28
2023-05-08T15:27:54.253Z,30.41
2023-05-08T15:30:56.134Z,30.30
2023-05-08T15:33:58.027Z,30.33
2023-05-08T15:37:00.042Z,30.62
2023-05-08T15:40:01.899Z,30.48
2023-05-08T15:43:04.106Z,30.88
2023-05-08T15:46:06.131Z,30.72
2023-05-08T15:49:08.004Z,31.01
2023-05-08T15:52:09.913Z,31.00
2023-05-08T15:55:12.056Z,31.21
2023-05-08T15:58:14.138Z,31.13
2023-05-08T16:01:15.994Z,31.30
2023-05-08T16:04:17.877Z,31.09
2023-05-08T16:07:19.722Z,31.09
2023-05-08T16:10:21.968Z,31.68
2023-05-08T16:13:24.048Z,31.58
2023-05-08T16:16:26.657Z,31.60
2023-05-08T16:19:29.004Z,31.63
2023-05-08T16:22:31.296Z,31.69
2023-05-08T16:25:33.199Z,31.67
2023-05-08T16:28:35.090Z,31.78
2023-05-08T16:31:36.889Z,32.19
2023-05-08T16:34:38.789Z,32.23
2023-05-08T16:37:40.664Z,32.32
2023-05-08T16:40:42.664Z,32.32
2023-05-08T16:43:44.672Z,32.36
2023-05-08T16:46:46.693Z,32.72
2023-05-08T16:49:48.657Z,33.01
2023-05-08T16:52:50.467Z,33.67
2023-05-08T16:55:52.362Z,33.75
2023-05-08T16:58:54.242Z,33.53
2023-05-08T17:01:56.476Z,33.86
2023-05-08T17:04:58.321Z,33.73
2023-05-08T17:08:00.293Z,33.65
2023-05-08T17:11:02.226Z,33.68
2023-05-08T17:14:04.163Z,33.80
2023-05-08T17:17:06.531Z,33.65
2023-05-08T17:20:09.036Z,33.40
2023-05-08T17:23:11.091Z,33.52
2023-05-08T17:26:12.925Z,33.35
2023-05-08T17:29:14.787Z,33.34
2023-05-08T17:32:19.537Z,33.38
2023-05-08T17:35:23.196Z,33.50
2023-05-08T17:38:25.161Z,33.40
2023-05-08T17:41:27.112Z,33.72
2023-05-08T17:44:28.982Z,33.62
2023-05-08T17:47:31.558Z,33.72
2023-05-08T17:50:34.368Z,33.80
2023-05-08T17:53:36.298Z,33.95
2023-05-08T17:56:38.202Z,33.99
2023-05-08T17:59:40.089Z,34.16
2023-05-08T18:02:42.037Z,34.19
2023-05-08T18:05:43.961Z,34.37
2023-05-08T18:08:46.560Z,34.69
2023-05-08T18:11:48.525Z,34.70
2023-05-08T18:14:50.355Z,34.64
2023-05-08T18:17:53.750Z,35.04
2023-05-08T18:20:55.681Z,35.12
2023-05-08T18:23:57.522Z,35.47
2023-05-08T18:26:59.343Z,35.47
2023-05-08T18:30:01.213Z,35.59
2023-05-08T18:33:03.075Z,35.72
2023-05-08T18:36:07.116Z,35.75
2023-05-08T18:39:09.185Z,35.76
2023-05-08T18:42:26.448Z,35.98
2023-05-08T18:45:28.326Z,36.01
2023-05-08T18:48:30.262Z,35.82
2023-05-08T18:51:32.178Z,36.01
2023-05-08T18:54:34.035Z,35.94
2023-05-08T18:57:36.010Z,36.10
2023-05-08T19:00:37.964Z,36.36
2023-05-08T19:03:39.940Z,36.46
2023-05-08T19:06:41.822Z,36.64
2023-05-08T19:09:43.712Z,36.47
2023-05-08T19:12:45.796Z,36.44
2023-05-08T19:15:47.674Z,36.57
2023-05-08T19:18:50.813Z,36.55
2023-05-08T19:21:52.667Z,36.78
2023-05-08T19:24:54.617Z,36.87
2023-05-08T19:27:58.711Z,36.76
2023-05-08T19:31:00.986Z,36.98
2023-05-08T19:34:02.868Z,37.04
2023-05-08T19:37:07.825Z,37.31
2023-05-08T19:40:10.108Z,37.10
2023-05-08T19:43:12.222Z,37.07
2023-05-08T19:46:14.093Z,37.20
2023-05-08T19:49:17.396Z,37.36
2023-05-08T19:52:19.883Z,37.27
2023-05-08T19:55:21.819Z,37.33
2023-05-08T19:58:23.711Z,37.55
2023-05-08T20:01:25.591Z,37.30
2023-05-08T20:04:27.444Z,37.38
2023-05-08T20:07:29.313Z,37.21
2023-05-08T20:10:31.215Z,37.40
2023-05-08T20:13:33.433Z,37.22
2023-05-08T20:16:35.457Z,37.31
2023-05-08T20:19:37.532Z,37.41
2023-05-08T20:22:39.475Z,37.28
2023-05-08T20:25:42.108Z,37.34
2023-05-08T20:28:43.965Z,37.62
2023-05-08T20:31:45.850Z,37.63
2023-05-08T20:34:47.770Z,37.63
2023-05-08T20:37:49.712Z,37.70
2023-05-08T20:40:52.423Z,37.91
2023-05-08T20:43:56.089Z,37.81
2023-05-08T20:46:57.950Z,37.85
2023-05-08T20:49:59.799Z,37.94
2023-05-08T20:53:01.822Z,38.25
2023-05-08T20:56:05.184Z,38.16
2023-05-08T20:59:07.022Z,38.36
2023-05-08T21:02:08.885Z,38.38
2023-05-08T21:05:11.532Z,38.46
2023-05-08T21:08:13.658Z,38.42
2023-05-08T21:11:16.387Z,38.63
2023-05-08T21:14:18.297Z,38.54
2023-05-08T21:17:20.216Z,38.56
2023-05-08T21:20:22.111Z,38.89
2023-05-08T21:23:24.122Z,38.83
2023-05-08T21:26:25.982Z,38.95
2023-05-08T21:29:27.927Z,38.84
2023-05-08T21:32:29.773Z,38.97
2023-05-08T21:35:31.709Z,38.93
2023-05-08T21:38:34.278Z,38.99
2023-05-08T21:41:36.157Z,39.16
2023-05-08T21:44:38.109Z,38.96
2023-05-08T21:47:39.965Z,39.11
2023-05-08T21:50:41.796Z,39.20
2023-05-08T21:53:43.708Z,39.22
2023-05-08T21:56:45.656Z,39.20
2023-05-08T21:59:49.263Z,39.26
2023-05-08T22:02:51.161Z,39.32
2023-05-08T22:05:53.093Z,39.32
2023-05-08T22:08:54.965Z,39.54
2023-05-08T22:11:56.946Z,39.54
2023-05-08T22:14:58.888Z,39.50
2023-05-08T22:18:02.774Z,39.79
2023-05-08T22:21:05.396Z,40.04
2023-05-08T22:24:07.654Z,40.16
2023-05-08T22:27:09.533Z,40.15
2023-05-08T22:30:11.618Z,40.49
2023-05-08T22:33:13.448Z,40.38
2023-05-08T22:36:16.000Z,40.22
2023-05-08T22:39:17.983Z,40.37
2023-05-08T22:42:19.966Z,40.83
2023-05-08T22:45:22.426Z,40.93
2023-05-08T22:48:24.360Z,40.55
2023-05-08T22:51:27.808Z,41.01
2023-05-08T22:54:29.640Z,41.27
2023-05-08T22:57:31.836Z,41.63
2023-05-08T23:00:33.849Z,41.79
2023-05-08T23:03:35.794Z,41.89
2023-05-08T23:06:37.685Z,41.89
2023-05-08T23:09:39.597Z,42.16
2023-05-08T23:12:42.290Z,42.70
2023-05-08T23:15:44.193Z,42.80
2023-05-08T23:18:46.365Z,43.02
2023-05-08T23:21:48.488Z,42.33
2023-05-08T23:24:50.610Z,43.07
2023-05-08T23:27:52.435Z,43.11
2023-05-08T23:30:54.334Z,43.09
2023-05-08T23:33:56.279Z,43.13
2023-05-08T23:36:58.231Z,43.13
2023-05-08T23:40:00.042Z,43.66
2023-05-08T23:43:01.930Z,43.06
2023-05-08T23:46:03.836Z,43.19
2023-05-08T23:49:06.072Z,43.12
2023-05-08T23:52:10.071Z,43.21
2023-05-08T23:55:12.223Z,43.39
2023-05-08T23:58:14.250Z,43.79
